createdAt,value
2018-09-23T00:01:58.698Z,14.51
2018-09-23T00:04:26.704Z,14.39
2018-09-23T00:06:54.896Z,14.47
2018-09-23T00:09:24.522Z,14.19
2018-09-23T00:11:52.233Z,14.36
2018-09-23T00:14:20.295Z,14.41
2018-09-23T00:16:48.010Z,13.93
2018-09-23T00:19:15.727Z,14.25
2018-09-23T00:21:43.948Z,14.29
2018-09-23T00:24:11.996Z,14.28
2018-09-23T00:26:39.914Z,14.10
2018-09-23T00:29:07.658Z,14.27
2018-09-23T00:31:35.393Z,14.28
2018-09-23T00:34:04.130Z,14.28
2018-09-23T00:36:32.147Z,14.09
2018-09-23T00:38:59.933Z,13.87
2018-09-23T00:41:27.653Z,14.18
2018-09-23T00:43:55.464Z,13.90
2018-09-23T00:46:23.044Z,13.80
2018-09-23T00:48:51.119Z,13.94
2018-09-23T00:51:18.738Z,14.09
2018-09-23T00:53:46.556Z,14.18
2018-09-23T00:56:14.419Z,14.02
2018-09-23T00:58:42.084Z,14.16
2018-09-23T01:01:11.725Z,14.21
2018-09-23T01:03:40.890Z,14.32
2018-09-23T01:06:09.290Z,14.36
2018-09-23T01:08:37.580Z,14.34
2018-09-23T01:11:06.527Z,14.34
2018-09-23T01:13:36.619Z,14.36
2018-09-23T01:16:04.948Z,14.41
2018-09-23T01:18:34.062Z,14.38
2018-09-23T01:21:02.689Z,14.41
2018-09-23T01:23:30.756Z,14.53
2018-09-23T01:25:58.399Z,14.54
2018-09-23T01:28:26.161Z,14.44
2018-09-23T01:30:54.014Z,14.36
2018-09-23T01:33:21.634Z,14.40
2018-09-23T01:35:49.163Z,14.43
2018-09-23T01:38:17.150Z,14.46
2018-09-23T01:40:44.898Z,14.44
2018-09-23T01:43:12.724Z,14.40
2018-09-23T01:45:40.288Z,14.47
2018-09-23T01:48:07.931Z,14.40
2018-09-23T01:50:36.030Z,14.41
2018-09-23T01:53:03.618Z,14.42
2018-09-23T01:55:31.215Z,14.48
2018-09-23T01:57:59.069Z,14.53
2018-09-23T02:00:26.790Z,14.52
2018-09-23T02:02:54.464Z,14.50
2018-09-23T02:05:22.196Z,14.46
2018-09-23T02:07:49.826Z,14.39
2018-09-23T02:10:17.849Z,14.45
2018-09-23T02:12:45.501Z,14.24
2018-09-23T02:15:13.072Z,14.44
2018-09-23T02:17:40.897Z,14.44
2018-09-23T02:20:08.801Z,14.43
2018-09-23T02:22:36.424Z,14.50
2018-09-23T02:25:04.151Z,14.25
2018-09-23T02:27:31.778Z,14.35
2018-09-23T02:30:01.605Z,14.43
2018-09-23T02:32:29.688Z,14.43
2018-09-23T02:34:57.356Z,14.40
2018-09-23T02:37:24.958Z,14.38
2018-09-23T02:39:52.600Z,14.44
2018-09-23T02:42:20.419Z,14.40
2018-09-23T02:44:48.131Z,14.26
2018-09-23T02:47:15.748Z,14.40
2018-09-23T02:49:43.269Z,14.37
2018-09-23T02:52:11.055Z,14.43
2018-09-23T02:54:38.609Z,14.48
2018-09-23T02:57:06.268Z,14.43
2018-09-23T02:59:33.834Z,14.40
2018-09-23T03:02:01.567Z,14.50
2018-09-23T03:04:29.292Z,14.40
2018-09-23T03:06:56.827Z,14.44
2018-09-23T03:09:24.477Z,14.52
2018-09-23T03:11:52.057Z,14.54
2018-09-23T03:14:21.664Z,14.57
2018-09-23T03:16:49.281Z,14.61
2018-09-23T03:19:16.872Z,14.64
2018-09-23T03:21:45.150Z,14.67
2018-09-23T03:24:12.738Z,14.67
2018-09-23T03:26:40.287Z,14.61
2018-09-23T03:29:07.810Z,14.64
2018-09-23T03:31:35.457Z,14.63
2018-09-23T03:34:03.000Z,14.64
2018-09-23T03:36:30.564Z,14.65
2018-09-23T03:38:58.136Z,14.67
2018-09-23T03:41:25.818Z,14.70
2018-09-23T03:43:53.334Z,14.69
2018-09-23T03:46:20.901Z,14.66
2018-09-23T03:48:52.030Z,14.67
2018-09-23T03:51:19.594Z,14.66
2018-09-23T03:53:47.417Z,14.65
2018-09-23T03:56:15.006Z,14.66
2018-09-23T03:58:42.553Z,14.62
2018-09-23T04:01:10.148Z,14.62
2018-09-23T04:03:37.673Z,14.62
2018-09-23T04:06:05.260Z,14.60
2018-09-23T04:08:32.810Z,14.62
2018-09-23T04:11:00.337Z,14.56
2018-09-23T04:13:27.918Z,14.62
2018-09-23T04:15:55.463Z,14.60
2018-09-23T04:18:23.070Z,14.63
2018-09-23T04:20:50.586Z,14.68
2018-09-23T04:23:18.140Z,14.68
2018-09-23T04:25:45.707Z,14.66
2018-09-23T04:28:13.317Z,14.67
2018-09-23T04:30:40.840Z,14.66
2018-09-23T04:33:08.387Z,14.64
2018-09-23T04:35:36.037Z,14.63
2018-09-23T04:38:03.605Z,14.64
2018-09-23T04:40:31.188Z,14.60
2018-09-23T04:42:58.782Z,14.61
2018-09-23T04:45:26.302Z,14.62
2018-09-23T04:47:53.948Z,14.62
2018-09-23T04:50:21.476Z,14.64
2018-09-23T04:52:49.034Z,14.59
2018-09-23T04:55:16.675Z,14.62
2018-09-23T04:57:44.202Z,14.64
2018-09-23T05:00:11.855Z,14.60
2018-09-23T05:02:39.421Z,14.62
2018-09-23T05:05:06.952Z,14.60
2018-09-23T05:07:34.550Z,14.54
2018-09-23T05:10:02.146Z,14.61
2018-09-23T05:12:29.682Z,14.62
2018-09-23T05:14:57.267Z,14.61
2018-09-23T05:17:24.803Z,14.57
2018-09-23T05:19:52.476Z,14.54
2018-09-23T05:22:20.058Z,14.56
2018-09-23T05:24:47.594Z,14.59
2018-09-23T05:27:15.195Z,14.55
2018-09-23T05:29:42.767Z,14.51
2018-09-23T05:32:10.351Z,14.52
2018-09-23T05:34:38.105Z,14.51
2018-09-23T05:37:05.641Z,14.45
2018-09-23T05:39:33.161Z,14.44
2018-09-23T05:42:00.825Z,14.42
2018-09-23T05:44:28.435Z,14.37
2018-09-23T05:46:56.037Z,14.44
2018-09-23T05:49:23.825Z,14.42
2018-09-23T05:51:51.407Z,14.35
2018-09-23T05:54:18.997Z,14.35
2018-09-23T05:56:46.585Z,14.33
2018-09-23T05:59:14.142Z,14.30
2018-09-23T06:01:41.752Z,14.35
2018-09-23T06:04:09.321Z,14.36
2018-09-23T06:06:36.885Z,14.37
2018-09-23T06:09:04.493Z,14.36
2018-09-23T06:11:32.138Z,14.33
2018-09-23T06:13:59.724Z,14.32
2018-09-23T06:16:27.236Z,14.36
2018-09-23T06:18:54.795Z,14.33
2018-09-23T06:21:22.435Z,14.32
2018-09-23T06:23:49.941Z,14.34
2018-09-23T06:26:17.535Z,14.33
2018-09-23T06:28:46.477Z,14.41
2018-09-23T06:31:14.135Z,14.37
2018-09-23T06:33:42.991Z,14.35
2018-09-23T06:36:11.206Z,14.35
2018-09-23T06:38:39.697Z,14.32
2018-09-23T06:41:08.959Z,14.31
2018-09-23T06:43:36.541Z,14.39
2018-09-23T06:46:04.098Z,14.31
2018-09-23T06:48:31.789Z,14.35
2018-09-23T06:50:59.343Z,14.37
2018-09-23T06:53:26.972Z,14.36
2018-09-23T06:55:54.717Z,14.41
2018-09-23T06:58:22.235Z,14.39
2018-09-23T07:00:49.813Z,14.38
2018-09-23T07:03:17.395Z,14.38
2018-09-23T07:05:45.179Z,14.38
2018-09-23T07:08:12.740Z,14.41
2018-09-23T07:10:40.395Z,14.38
2018-09-23T07:13:08.005Z,14.44
2018-09-23T07:15:35.561Z,14.40
2018-09-23T07:18:03.171Z,14.38
2018-09-23T07:20:30.676Z,14.39
2018-09-23T07:22:58.291Z,14.38
2018-09-23T07:25:25.880Z,14.43
2018-09-23T07:27:53.490Z,14.48
2018-09-23T07:30:21.065Z,14.45
2018-09-23T07:32:48.699Z,14.47
2018-09-23T07:35:16.222Z,14.43
2018-09-23T07:37:44.012Z,14.43
2018-09-23T07:40:11.529Z,14.38
2018-09-23T07:42:39.223Z,14.41
2018-09-23T07:45:06.764Z,14.40
2018-09-23T07:47:34.274Z,14.39
2018-09-23T07:50:01.948Z,14.39
2018-09-23T07:52:29.495Z,14.39
2018-09-23T07:54:57.144Z,14.39
2018-09-23T07:57:24.661Z,14.43
2018-09-23T07:59:52.228Z,14.44
2018-09-23T08:02:19.790Z,14.47
2018-09-23T08:04:47.355Z,14.44
2018-09-23T08:07:15.035Z,14.47
2018-09-23T08:09:42.617Z,14.45
2018-09-23T08:12:10.185Z,14.47
2018-09-23T08:14:38.088Z,14.49
2018-09-23T08:17:05.500Z,14.47
2018-09-23T08:19:33.299Z,14.50
2018-09-23T08:22:01.026Z,14.52
2018-09-23T08:24:28.745Z,14.61
2018-09-23T08:26:56.324Z,14.63
2018-09-23T08:29:23.974Z,14.69
2018-09-23T08:31:51.622Z,14.69
2018-09-23T08:34:19.137Z,14.67
2018-09-23T08:36:46.647Z,14.63
2018-09-23T08:39:14.261Z,14.69
2018-09-23T08:41:41.903Z,14.65
2018-09-23T08:44:09.435Z,14.70
2018-09-23T08:46:37.134Z,14.77
2018-09-23T08:49:04.697Z,14.72
2018-09-23T08:51:32.281Z,14.80
2018-09-23T08:53:59.848Z,14.81
2018-09-23T08:56:27.600Z,14.80
2018-09-23T08:58:57.247Z,14.78
2018-09-23T09:01:24.948Z,14.79
2018-09-23T09:03:52.853Z,14.77
2018-09-23T09:06:20.526Z,14.76
2018-09-23T09:08:48.484Z,14.76
2018-09-23T09:11:16.152Z,14.81
2018-09-23T09:13:43.862Z,14.79
2018-09-23T09:16:11.921Z,14.73
2018-09-23T09:18:39.620Z,14.75
2018-09-23T09:21:07.236Z,14.75
2018-09-23T09:23:34.769Z,14.82
2018-09-23T09:26:02.333Z,14.85
2018-09-23T09:28:35.286Z,14.87
2018-09-23T09:31:02.842Z,14.89
2018-09-23T09:33:30.867Z,14.94
2018-09-23T09:35:58.695Z,14.84
2018-09-23T09:38:26.564Z,14.84
2018-09-23T09:40:55.122Z,14.87
2018-09-23T09:43:22.829Z,14.91
2018-09-23T09:45:54.350Z,14.87
2018-09-23T09:48:21.902Z,14.93
2018-09-23T09:50:55.764Z,14.90
2018-09-23T09:53:23.377Z,14.92
2018-09-23T09:55:55.202Z,14.91
2018-09-23T09:58:22.769Z,14.96
2018-09-23T10:00:50.629Z,14.94
2018-09-23T10:03:18.193Z,14.96
2018-09-23T10:05:45.815Z,14.98
2018-09-23T10:08:13.361Z,14.96
2018-09-23T10:10:40.943Z,15.01
2018-09-23T10:13:08.587Z,14.96
2018-09-23T10:15:36.174Z,14.94
2018-09-23T10:18:03.887Z,14.95
2018-09-23T10:20:38.613Z,14.95
2018-09-23T10:23:06.170Z,14.94
2018-09-23T10:25:33.867Z,14.97
2018-09-23T10:28:10.718Z,14.92
2018-09-23T10:30:52.478Z,14.96
2018-09-23T10:33:28.503Z,14.95
2018-09-23T10:38:48.652Z,14.92
2018-09-23T10:41:16.307Z,14.90
2018-09-23T10:43:43.828Z,14.87
2018-09-23T10:46:11.400Z,14.87
2018-09-23T10:48:43.685Z,14.84
2018-09-23T10:51:11.261Z,14.74
2018-09-23T10:53:38.793Z,14.87
2018-09-23T10:56:06.339Z,14.90
2018-09-23T10:58:33.891Z,14.86
2018-09-23T11:01:01.435Z,14.65
2018-09-23T11:03:28.974Z,14.67
2018-09-23T11:06:00.545Z,14.65
2018-09-23T11:08:30.118Z,14.65
2018-09-23T11:10:59.792Z,14.63
2018-09-23T11:13:27.471Z,14.60
2018-09-23T11:15:55.020Z,14.54
2018-09-23T11:18:22.634Z,14.42
2018-09-23T11:20:50.163Z,14.45
2018-09-23T11:23:17.862Z,14.39
2018-09-23T11:25:45.464Z,14.37
2018-09-23T11:28:13.084Z,14.33
2018-09-23T11:30:40.706Z,14.42
2018-09-23T11:33:08.427Z,14.42
2018-09-23T11:35:35.930Z,14.38
2018-09-23T11:38:03.530Z,14.40
2018-09-23T11:40:31.068Z,14.35
2018-09-23T11:42:58.683Z,14.38
2018-09-23T11:45:26.173Z,14.28
2018-09-23T11:47:53.806Z,14.22
2018-09-23T11:50:21.346Z,14.16
2018-09-23T11:52:48.890Z,14.15
2018-09-23T11:55:16.430Z,14.11
2018-09-23T11:57:44.015Z,14.10
2018-09-23T12:00:11.594Z,14.12
2018-09-23T12:02:39.137Z,14.06
2018-09-23T12:05:06.731Z,14.10
2018-09-23T12:07:34.277Z,14.09
2018-09-23T12:10:01.855Z,14.04
2018-09-23T12:12:33.592Z,14.12
2018-09-23T12:15:02.122Z,13.98
2018-09-23T12:17:29.994Z,13.92
2018-09-23T12:19:59.876Z,13.85
2018-09-23T12:25:03.391Z,14.01
2018-09-23T12:27:32.319Z,14.05
2018-09-23T12:30:00.029Z,13.90
2018-09-23T12:32:27.557Z,13.98
2018-09-23T12:34:55.114Z,13.94
2018-09-23T12:37:23.887Z,13.56
2018-09-23T12:39:51.446Z,13.59
2018-09-23T12:42:19.040Z,13.66
2018-09-23T12:44:47.834Z,13.61
2018-09-23T12:47:15.369Z,13.24
2018-09-23T12:49:42.974Z,13.35
2018-09-23T12:52:10.631Z,13.31
2018-09-23T12:54:39.487Z,13.46
2018-09-23T12:57:07.086Z,13.26
2018-09-23T12:59:35.349Z,13.24
2018-09-23T13:02:03.786Z,13.23
2018-09-23T13:04:31.381Z,13.24
2018-09-23T13:06:58.953Z,13.39
2018-09-23T13:09:26.531Z,13.45
2018-09-23T13:11:54.134Z,13.49
2018-09-23T13:14:21.716Z,13.41
2018-09-23T13:16:49.263Z,13.19
2018-09-23T13:19:16.901Z,13.41
2018-09-23T13:21:46.665Z,13.32
2018-09-23T13:24:15.181Z,13.30
2018-09-23T13:26:42.719Z,13.26
2018-09-23T13:29:10.318Z,13.11
2018-09-23T13:31:39.047Z,13.14
2018-09-23T13:34:06.731Z,12.95
2018-09-23T13:36:34.301Z,13.00
2018-09-23T13:39:01.842Z,13.04
2018-09-23T13:41:29.505Z,12.88
2018-09-23T13:43:57.067Z,12.94
2018-09-23T13:46:24.775Z,12.89
2018-09-23T13:48:53.145Z,12.85
2018-09-23T13:51:20.885Z,12.88
2018-09-23T13:53:53.681Z,12.79
2018-09-23T13:56:21.822Z,12.80
2018-09-23T13:58:49.401Z,12.70
2018-09-23T14:01:16.976Z,12.59
2018-09-23T14:03:44.573Z,12.78
2018-09-23T14:06:12.212Z,12.80
2018-09-23T14:08:39.832Z,12.84
2018-09-23T14:11:07.608Z,12.92
2018-09-23T14:13:35.326Z,12.55
2018-09-23T14:16:05.356Z,12.67
2018-09-23T14:18:33.215Z,12.55
2018-09-23T14:21:00.981Z,12.64
2018-09-23T14:23:28.787Z,12.69
2018-09-23T14:25:57.191Z,12.33
2018-09-23T14:28:25.072Z,12.84
2018-09-23T14:30:55.114Z,12.69
2018-09-23T14:33:24.814Z,12.54
2018-09-23T14:35:52.411Z,12.65
2018-09-23T14:38:20.244Z,12.80
2018-09-23T14:40:47.851Z,12.48
2018-09-23T14:43:15.442Z,12.50
2018-09-23T14:45:42.981Z,12.52
2018-09-23T14:48:10.532Z,12.56
2018-09-23T14:50:38.049Z,12.57
2018-09-23T14:53:05.636Z,12.72
2018-09-23T14:55:33.209Z,12.79
2018-09-23T14:58:00.783Z,12.77
2018-09-23T15:00:28.339Z,12.47
2018-09-23T15:02:55.895Z,12.70
2018-09-23T15:05:23.422Z,12.56
2018-09-23T15:07:51.095Z,12.46
2018-09-23T15:10:18.666Z,12.56
2018-09-23T15:12:46.286Z,12.50
2018-09-23T15:15:13.870Z,12.48
2018-09-23T15:17:41.511Z,11.98
2018-09-23T15:20:09.043Z,12.36
2018-09-23T15:22:38.620Z,12.37
2018-09-23T15:25:06.157Z,12.60
2018-09-23T15:27:33.752Z,12.66
2018-09-23T15:30:01.275Z,12.68
2018-09-23T15:32:28.794Z,12.37
2018-09-23T15:34:56.373Z,12.47
2018-09-23T15:37:23.989Z,12.03
2018-09-23T15:39:51.556Z,11.93
2018-09-23T15:42:19.323Z,11.86
2018-09-23T15:44:47.079Z,11.83
2018-09-23T15:47:14.929Z,11.76
2018-09-23T15:49:42.468Z,11.77
2018-09-23T15:52:10.259Z,11.83
2018-09-23T15:54:37.812Z,11.85
2018-09-23T15:57:05.503Z,11.85
2018-09-23T15:59:33.061Z,11.46
2018-09-23T16:02:02.575Z,11.92
2018-09-23T16:04:30.258Z,11.88
2018-09-23T16:06:57.795Z,11.42
2018-09-23T16:09:25.326Z,11.56
2018-09-23T16:11:53.067Z,11.65
2018-09-23T16:14:20.593Z,11.82
2018-09-23T16:16:48.266Z,11.76
2018-09-23T16:19:15.884Z,11.21
2018-09-23T16:21:43.383Z,11.51
2018-09-23T16:24:10.952Z,11.09
2018-09-23T16:26:38.544Z,11.41
2018-09-23T16:29:06.059Z,11.21
2018-09-23T16:31:33.641Z,11.49
2018-09-23T16:34:01.204Z,11.00
2018-09-23T16:36:28.790Z,11.38
2018-09-23T16:38:56.315Z,11.25
2018-09-23T16:41:23.858Z,11.01
2018-09-23T16:43:57.668Z,11.20
2018-09-23T16:46:27.289Z,10.88
2018-09-23T16:48:55.092Z,11.12
2018-09-23T16:51:24.650Z,11.11
2018-09-23T16:53:52.215Z,10.86
2018-09-23T16:56:19.915Z,10.70
2018-09-23T16:58:47.438Z,10.29
2018-09-23T17:01:15.110Z,10.66
2018-09-23T17:03:42.663Z,10.37
2018-09-23T17:06:10.265Z,10.43
2018-09-23T17:08:37.870Z,10.82
2018-09-23T17:11:05.453Z,10.46
2018-09-23T17:13:32.986Z,10.67
2018-09-23T17:16:04.186Z,10.44
2018-09-23T17:18:31.710Z,10.13
2018-09-23T17:20:59.273Z,10.01
2018-09-23T17:23:26.826Z,10.55
2018-09-23T17:25:54.387Z,10.53
2018-09-23T17:28:22.080Z,10.84
2018-09-23T17:30:49.695Z,10.99
2018-09-23T17:33:17.277Z,10.94
2018-09-23T17:35:44.842Z,10.77
2018-09-23T17:38:12.471Z,10.75
2018-09-23T17:40:40.014Z,10.80
2018-09-23T17:43:07.531Z,10.93
2018-09-23T17:45:35.243Z,10.64
2018-09-23T17:48:11.242Z,10.65
2018-09-23T17:50:38.828Z,10.84
2018-09-23T17:53:06.401Z,11.08
2018-09-23T17:55:45.088Z,10.81
2018-09-23T17:58:12.711Z,11.07
2018-09-23T18:00:40.242Z,11.04
2018-09-23T18:03:07.799Z,10.86
2018-09-23T18:05:35.539Z,10.85
2018-09-23T18:08:03.174Z,10.88
2018-09-23T18:10:30.687Z,10.40
2018-09-23T18:13:01.843Z,10.83
2018-09-23T18:15:29.414Z,10.88
2018-09-23T18:17:57.191Z,10.66
2018-09-23T18:20:33.129Z,10.80
2018-09-23T18:23:02.785Z,10.63
2018-09-23T18:25:30.436Z,10.74
2018-09-23T18:27:57.974Z,10.96
2018-09-23T18:30:26.611Z,10.81
2018-09-23T18:32:54.347Z,10.32
2018-09-23T18:35:21.906Z,10.51
2018-09-23T18:37:49.652Z,10.07
2018-09-23T18:40:17.241Z,10.65
2018-09-23T18:42:44.803Z,10.50
2018-09-23T18:45:12.377Z,10.78
2018-09-23T18:47:40.087Z,10.67
2018-09-23T18:50:07.617Z,10.49
2018-09-23T18:52:35.242Z,10.88
2018-09-23T18:55:22.563Z,10.41
2018-09-23T18:57:50.078Z,10.54
2018-09-23T19:00:17.627Z,10.93
2018-09-23T19:02:45.164Z,10.73
2018-09-23T19:05:13.737Z,10.53
2018-09-23T19:07:41.293Z,10.40
2018-09-23T19:10:12.085Z,10.45
2018-09-23T19:12:39.703Z,10.68
2018-09-23T19:15:07.350Z,10.81
2018-09-23T19:17:36.051Z,10.26
2018-09-23T19:20:03.647Z,10.71
2018-09-23T19:22:31.227Z,10.39
2018-09-23T19:24:58.757Z,10.46
2018-09-23T19:27:26.384Z,10.58
2018-09-23T19:29:53.915Z,10.41
2018-09-23T19:32:21.481Z,10.25
2018-09-23T19:34:49.023Z,10.53
2018-09-23T19:37:16.605Z,10.20
2018-09-23T19:39:44.159Z,10.10
2018-09-23T19:42:11.827Z,10.50
2018-09-23T19:44:39.368Z,10.50
2018-09-23T19:47:07.312Z,10.00
2018-09-23T19:49:35.218Z,10.33
2018-09-23T19:52:02.782Z,10.36
2018-09-23T19:54:30.443Z,10.44
2018-09-23T19:56:58.292Z,10.56
2018-09-23T19:59:25.969Z,10.51
2018-09-23T20:01:53.521Z,10.60
2018-09-23T20:04:21.094Z,10.14
2018-09-23T20:06:48.700Z,10.57
2018-09-23T20:09:16.254Z,10.58
2018-09-23T20:11:43.776Z,10.78
2018-09-23T20:14:11.381Z,10.44
2018-09-23T20:16:38.921Z,10.63
2018-09-23T20:19:06.500Z,10.59
2018-09-23T20:21:34.090Z,10.53
2018-09-23T20:24:01.692Z,10.16
2018-09-23T20:26:29.257Z,10.17
2018-09-23T20:28:56.835Z,10.50
2018-09-23T20:31:24.398Z,10.27
2018-09-23T20:33:52.135Z,10.42
2018-09-23T20:36:19.708Z,10.53
2018-09-23T20:38:47.315Z,10.59
2018-09-23T20:41:14.830Z,10.64
2018-09-23T20:43:42.428Z,10.56
2018-09-23T20:46:10.087Z,10.77
2018-09-23T20:48:37.821Z,10.30
2018-09-23T20:51:05.363Z,10.25
2018-09-23T20:53:32.944Z,10.18
2018-09-23T20:56:00.477Z,10.18
2018-09-23T20:58:27.978Z,10.35
2018-09-23T21:00:55.771Z,10.43
2018-09-23T21:03:23.326Z,10.45
2018-09-23T21:05:50.921Z,10.83
2018-09-23T21:08:18.462Z,10.33
2018-09-23T21:10:46.027Z,10.39
2018-09-23T21:13:13.605Z,10.43
2018-09-23T21:15:43.264Z,10.53
2018-09-23T21:18:10.863Z,10.25
2018-09-23T21:20:38.492Z,10.12
2018-09-23T21:23:06.271Z,10.19
2018-09-23T21:25:33.811Z,10.09
2018-09-23T21:28:01.399Z,10.17
2018-09-23T21:30:28.922Z,10.09
2018-09-23T21:32:56.481Z,10.34
2018-09-23T21:35:24.219Z,10.46
2018-09-23T21:37:51.744Z,10.29
2018-09-23T21:40:19.274Z,10.18
2018-09-23T21:42:50.607Z,10.58
2018-09-23T21:45:18.187Z,10.36
2018-09-23T21:47:45.800Z,10.51
2018-09-23T21:50:13.403Z,10.55
2018-09-23T21:52:41.038Z,10.39
2018-09-23T21:55:08.638Z,10.12
2018-09-23T21:57:36.183Z,10.00
2018-09-23T22:00:03.738Z,10.40
2018-09-23T22:02:31.463Z,10.41
2018-09-23T22:05:00.679Z,10.27
2018-09-23T22:07:28.306Z,10.29
2018-09-23T22:09:55.913Z,10.64
2018-09-23T22:12:23.579Z,10.32
2018-09-23T22:14:51.276Z,10.38
2018-09-23T22:17:19.004Z,10.38
2018-09-23T22:19:48.032Z,10.55
2018-09-23T22:22:15.617Z,10.51
2018-09-23T22:24:47.275Z,10.20
2018-09-23T22:27:14.983Z,10.27
2018-09-23T22:29:42.521Z,10.16
2018-09-23T22:32:10.101Z,10.20
2018-09-23T22:34:37.637Z,10.15
2018-09-23T22:37:05.218Z,10.22
2018-09-23T22:39:32.841Z,10.06
2018-09-23T22:42:00.440Z,10.15
2018-09-23T22:44:27.962Z,10.11
2018-09-23T22:46:55.536Z,10.30
2018-09-23T22:49:23.290Z,10.21
2018-09-23T22:51:50.882Z,10.08
2018-09-23T22:54:18.414Z,10.17
2018-09-23T22:56:45.989Z,10.28
2018-09-23T22:59:13.561Z,10.08
2018-09-23T23:01:41.112Z,10.29
2018-09-23T23:04:08.685Z,10.22
2018-09-23T23:06:36.259Z,10.23
2018-09-23T23:09:03.786Z,10.15
2018-09-23T23:11:31.327Z,10.39
2018-09-23T23:13:58.850Z,10.04
2018-09-23T23:16:26.441Z,10.14
2018-09-23T23:18:53.954Z,10.06
2018-09-23T23:21:21.518Z,10.26
2018-09-23T23:23:49.106Z,10.01
2018-09-23T23:26:16.748Z,9.89
2018-09-23T23:28:44.330Z,9.91
2018-09-23T23:31:11.856Z,10.16
2018-09-23T23:33:39.413Z,10.25
2018-09-23T23:36:06.933Z,10.23
2018-09-23T23:38:34.524Z,9.90
2018-09-23T23:41:02.086Z,9.98
2018-09-23T23:43:29.625Z,10.46
2018-09-23T23:45:57.222Z,9.82
2018-09-23T23:48:24.785Z,9.91
2018-09-23T23:50:52.575Z,9.62
2018-09-23T23:53:20.207Z,9.65
2018-09-23T23:55:47.793Z,9.80
2018-09-23T23:58:15.508Z,9.67
